Judson, Texas
Current Conditions -  °F | °C
As of 4:53 AM on Friday 19 Dec 2014 (Local Time) from KGGG Reporting Station
Haze Haze  
Wind Chill: 47°   Ceiling: 400
Heat Index: 49°   Visibility: 5mi
Dew Point: 46°   Wind: 6mph
Humidity: 90%   Direction: 40°NE
Pressure: 30.1"   Gusts: NA
Location:  32.58°N, 94.75°W
Report Text: KGGG 191053Z 04005KT 5SM BR OVC004 09/08 A3010 RMK AO2 SLP192 T00940078
Loading
Personal Weather Stations






























Interactive Weather Map New forecast layout! Learn more

10-Day Weather Forecast

Advertisements
Track Severe Weather on mobile